Nissho Maru No.18 — JL6369 — position and weather

sailwx.info

Track history (hours):
 
Tides and Currents Weather Stations Pressure Air Temp Water Temp Dewpoint Dewpoint Depression Visibility Wind Speed Wind Dir Waves Ship Positions

Nissho Maru No.18

Last reported at 2014-Sep-01 12:27 UTC. Time now 2014-Sep-02 19:02 UTC.
Position N 34°30' E 138°33'.

Length 65 m; draft 4 m.

Type: Tanker. MMSI: 431500465.

Date/timePositionNaut miles runAvg speedWind from/ knotsBaromVisibWave heightAir tempDewpointWater temp
2014-Sep-01 12:27N 34°30' E 138°33'52 9.9
2014-Sep-01 07:10N 34°56' E 139°28'6 9.6
2014-Sep-01 06:33N 35°00' E 139°33'1111.2
2014-Sep-01 05:33N 35°08' E 139°43'1110.6
2014-Sep-01 04:33N 35°18' E 139°44'9 9.3
2014-Sep-01 03:33N 35°27' E 139°47'1110.9
2014-Sep-01 02:33N 35°32' E 139°59'3 3.5
2014-Sep-01 01:33N 35°32' E 140°03'0 0.0
2014-Sep-01 00:33N 35°32' E 140°03'0 0.1
2014-Aug-31 23:33N 35°32' E 140°03'2 1.7
2014-Aug-31 22:33N 35°32' E 140°05'0 0.0
2014-Aug-31 21:33N 35°32' E 140°05'0 0.0
2014-Aug-31 20:33N 35°32' E 140°05'0 0.0
2014-Aug-31 19:33N 35°32' E 140°05'0 0.0
2014-Aug-31 18:33N 35°32' E 140°05'0 0.0
2014-Aug-31 17:33N 35°32' E 140°05'0 0.0
2014-Aug-31 16:33N 35°32' E 140°05'0 0.0
2014-Aug-31 15:33N 35°32' E 140°05'0 0.0
2014-Aug-31 14:33N 35°32' E 140°05'0 0.0
2014-Aug-31 13:34N 35°32' E 140°05'0 0.0
2014-Aug-31 12:33N 35°32' E 140°05'0 0.0
2014-Aug-31 11:33N 35°32' E 140°05'0 0.0
2014-Aug-31 10:33N 35°32' E 140°05'0 0.0
2014-Aug-31 09:33N 35°32' E 140°05'0 0.0
2014-Aug-31 08:34N 35°32' E 140°05'0 0.0
2014-Aug-31 07:33N 35°32' E 140°05'0 0.0
2014-Aug-31 06:33N 35°32' E 140°05'0 0.0
2014-Aug-31 05:34N 35°32' E 140°05'4 3.6
2014-Aug-31 04:33N 35°34' E 140°01'1110.7
2014-Aug-31 03:33N 35°30' E 139°49'2 2.0
2014-Aug-31 02:34N 35°31' E 139°46'0 0.0
2014-Aug-31 01:33N 35°31' E 139°46'0 0.0
2014-Aug-31 00:33N 35°31' E 139°46'3 2.8
2014-Aug-30 23:34N 35°29' E 139°49'0 0.1
2014-Aug-30 22:33N 35°29' E 139°49'0 0.0
2014-Aug-30 21:34N 35°29' E 139°49'0 0.0
2014-Aug-30 20:33N 35°29' E 139°49'0 0.0
2014-Aug-30 19:34N 35°29' E 139°49'0 0.0
2014-Aug-30 18:33N 35°29' E 139°49'0 0.0
2014-Aug-30 17:33N 35°29' E 139°49'0 0.0
2014-Aug-30 16:33N 35°29' E 139°49'5 5.5
2014-Aug-30 15:33N 35°24' E 139°46'9 8.6
2014-Aug-30 14:33N 35°15' E 139°47'9 9.5
2014-Aug-30 13:34N 35°06' E 139°45'1110.9
2014-Aug-30 12:33N 34°59' E 139°35'231 8.2
2014-Aug-29 08:21N 34°06' E 135°03'1011.6
2014-Aug-29 07:32N 34°15' E 135°03'1111.5
2014-Aug-29 06:33N 34°25' E 135°10'1110.9
2014-Aug-29 05:33N 34°32' E 135°20'5 5.3
2014-Aug-29 04:33N 34°33' E 135°26'0 0.0
2014-Aug-29 03:33N 34°33' E 135°26'0 0.0
2014-Aug-29 02:32N 34°33' E 135°26'0 0.0
2014-Aug-29 01:33N 34°33' E 135°26'0 0.0
2014-Aug-29 00:33N 34°33' E 135°26'4 3.2
2014-Aug-28 23:20N 34°33' E 135°22'3 3.2
2014-Aug-28 22:23N 34°32' E 135°18'0 0.0
2014-Aug-28 21:29N 34°32' E 135°18'0 0.0
2014-Aug-28 20:29N 34°32' E 135°18'0 0.0
2014-Aug-28 19:29N 34°32' E 135°18'0 0.0
2014-Aug-28 18:29N 34°32' E 135°18'0 0.0
2014-Aug-28 17:23N 34°32' E 135°18'0 0.1
2014-Aug-28 16:29N 34°32' E 135°18'0 0.0
2014-Aug-28 15:29N 34°32' E 135°18'0 0.0
2014-Aug-28 14:23N 34°32' E 135°18'0 0.0
2014-Aug-28 13:29N 34°32' E 135°18'0 0.0
2014-Aug-28 12:29N 34°32' E 135°18'0 0.0
2014-Aug-28 11:32N 34°32' E 135°18'0 0.0
2014-Aug-28 10:32N 34°32' E 135°18'0 0.0
2014-Aug-28 09:26N 34°32' E 135°18'0 0.0
2014-Aug-28 08:14N 34°32' E 135°18'0 0.0
2014-Aug-28 07:32N 34°32' E 135°18'0 0.0
2014-Aug-28 06:32N 34°32' E 135°18'0 0.0
2014-Aug-28 05:25N 34°32' E 135°18'0 0.0
2014-Aug-28 04:31N 34°32' E 135°18'0 0.0
2014-Aug-28 03:19N 34°32' E 135°18'0 0.0
2014-Aug-28 02:28N 34°32' E 135°18'0 0.0
2014-Aug-27 12:25N 34°32' E 135°18'8 9.0
2014-Aug-27 11:33N 34°34' E 135°09'9 8.8
2014-Aug-27 10:33N 34°37' E 134°59'137 4.7
2014-Aug-26 05:27N 34°11' E 132°16'3 1.7
2014-Aug-26 03:32N 34°14' E 132°19'1110.9
2014-Aug-26 02:33N 34°20' E 132°29'3 2.6
2014-Aug-26 01:33N 34°22' E 132°31'1 1.4
2014-Aug-26 00:33N 34°21' E 132°30'2 2.4
2014-Aug-25 23:32N 34°19' E 132°29'0 0.0
2014-Aug-25 22:32N 34°19' E 132°29'0 0.0
2014-Aug-25 21:32N 34°19' E 132°29'0 0.0
2014-Aug-25 20:32N 34°19' E 132°29'0 0.0
2014-Aug-25 19:32N 34°19' E 132°29'0 0.0
2014-Aug-25 18:32N 34°19' E 132°29'0 0.0
2014-Aug-25 17:29N 34°19' E 132°29'0 0.0
2014-Aug-25 16:32N 34°19' E 132°29'0 0.0
2014-Aug-25 15:29N 34°19' E 132°29'0 0.0
2014-Aug-25 14:32N 34°19' E 132°29'0 0.0
2014-Aug-25 13:29N 34°19' E 132°29'0 0.0
2014-Aug-25 12:32N 34°19' E 132°29'1 1.1
2014-Aug-25 11:33N 34°18' E 132°28'1311.0
2014-Aug-25 10:24N 34°12' E 132°15'0 0.1
2014-Aug-25 09:32N 34°12' E 132°15'0 0.0
2014-Aug-25 08:33N 34°12' E 132°15'0 0.0
2014-Aug-25 07:33N 34°12' E 132°15'0 0.0
2014-Aug-25 06:33N 34°12' E 132°15'2 1.9
2014-Aug-25 05:16N 34°11' E 132°17'4 6.1
2014-Aug-25 04:33N 34°15' E 132°20'9 9.0
2014-Aug-25 03:33N 34°20' E 132°29'3 2.7
2014-Aug-25 02:33N 34°22' E 132°31'0 0.0
2014-Aug-25 01:33N 34°22' E 132°31'0 0.0
2014-Aug-25 00:33N 34°22' E 132°31'0 0.0
2014-Aug-24 23:33N 34°22' E 132°31'3 3.4
2014-Aug-24 22:33N 34°19' E 132°30'0 0.0
2014-Aug-24 21:33N 34°19' E 132°30'0 0.0
2014-Aug-24 20:33N 34°19' E 132°30'0 0.1
2014-Aug-24 19:33N 34°19' E 132°29'0 0.0
2014-Aug-24 18:33N 34°19' E 132°29'0 0.0
2014-Aug-24 17:33N 34°19' E 132°29'0 0.0
2014-Aug-24 16:33N 34°19' E 132°29'0 0.0
2014-Aug-24 15:33N 34°19' E 132°29'0 0.0
2014-Aug-24 14:33N 34°19' E 132°29'0 0.0
2014-Aug-24 13:33N 34°19' E 132°29'0 0.0
2014-Aug-24 12:33N 34°19' E 132°30'0 0.0
2014-Aug-24 11:33N 34°19' E 132°30'0 0.0
2014-Aug-24 10:33N 34°19' E 132°30'0 0.0
2014-Aug-24 09:33N 34°19' E 132°30'0 0.0
2014-Aug-24 08:33N 34°19' E 132°30'0 0.0
2014-Aug-24 07:33N 34°19' E 132°30'0 0.0
2014-Aug-24 06:33N 34°19' E 132°30'0 0.0
2014-Aug-24 05:33N 34°19' E 132°29'0 0.0
2014-Aug-24 04:33N 34°19' E 132°29'0 0.0
2014-Aug-24 03:33N 34°19' E 132°29'0 0.0
2014-Aug-24 02:33N 34°19' E 132°29'0 0.1
2014-Aug-24 01:33N 34°19' E 132°30'0 0.0
2014-Aug-24 00:33N 34°19' E 132°30'0 0.0
2014-Aug-23 23:30N 34°19' E 132°30'0 0.0
2014-Aug-23 22:33N 34°19' E 132°30'0 0.0
2014-Aug-23 21:33N 34°19' E 132°30'0 0.0
2014-Aug-23 20:33N 34°19' E 132°30'0 0.0
2014-Aug-23 19:33N 34°19' E 132°30'24 1.0
2014-Aug-22 18:21N 33°56' E 132°39'  
Track history (hours):
 
Tides and Currents Weather Stations Pressure Air Temp Water Temp Dewpoint Dewpoint Depression Visibility Wind Speed Wind Dir Waves Ship Positions

Nissho Maru No.18

Last reported at 2014-Sep-01 12:27 UTC. Time now 2014-Sep-02 19:02 UTC.
Position N 34°30' E 138°33'.

Length 65 m; draft 4 m.

Type: Tanker. MMSI: 431500465.

Date/timePositionNaut miles runAvg speedWind from/ knotsBaromVisibWave heightAir tempDewpointWater temp
2014-Sep-01 12:27N 34°30' E 138°33'52 9.9
2014-Sep-01 07:10N 34°56' E 139°28'6 9.6
2014-Sep-01 06:33N 35°00' E 139°33'1111.2
2014-Sep-01 05:33N 35°08' E 139°43'1110.6
2014-Sep-01 04:33N 35°18' E 139°44'9 9.3
2014-Sep-01 03:33N 35°27' E 139°47'1110.9
2014-Sep-01 02:33N 35°32' E 139°59'3 3.5
2014-Sep-01 01:33N 35°32' E 140°03'0 0.0
2014-Sep-01 00:33N 35°32' E 140°03'0 0.1
2014-Aug-31 23:33N 35°32' E 140°03'2 1.7
2014-Aug-31 22:33N 35°32' E 140°05'0 0.0
2014-Aug-31 21:33N 35°32' E 140°05'0 0.0
2014-Aug-31 20:33N 35°32' E 140°05'0 0.0
2014-Aug-31 19:33N 35°32' E 140°05'0 0.0
2014-Aug-31 18:33N 35°32' E 140°05'0 0.0
2014-Aug-31 17:33N 35°32' E 140°05'0 0.0
2014-Aug-31 16:33N 35°32' E 140°05'0 0.0
2014-Aug-31 15:33N 35°32' E 140°05'0 0.0
2014-Aug-31 14:33N 35°32' E 140°05'0 0.0
2014-Aug-31 13:34N 35°32' E 140°05'0 0.0
2014-Aug-31 12:33N 35°32' E 140°05'0 0.0
2014-Aug-31 11:33N 35°32' E 140°05'0 0.0
2014-Aug-31 10:33N 35°32' E 140°05'0 0.0
2014-Aug-31 09:33N 35°32' E 140°05'0 0.0
2014-Aug-31 08:34N 35°32' E 140°05'0 0.0
2014-Aug-31 07:33N 35°32' E 140°05'0 0.0
2014-Aug-31 06:33N 35°32' E 140°05'0 0.0
2014-Aug-31 05:34N 35°32' E 140°05'4 3.6
2014-Aug-31 04:33N 35°34' E 140°01'1110.7
2014-Aug-31 03:33N 35°30' E 139°49'2 2.0
2014-Aug-31 02:34N 35°31' E 139°46'0 0.0
2014-Aug-31 01:33N 35°31' E 139°46'0 0.0
2014-Aug-31 00:33N 35°31' E 139°46'3 2.8
2014-Aug-30 23:34N 35°29' E 139°49'0 0.1
2014-Aug-30 22:33N 35°29' E 139°49'0 0.0
2014-Aug-30 21:34N 35°29' E 139°49'0 0.0
2014-Aug-30 20:33N 35°29' E 139°49'0 0.0
2014-Aug-30 19:34N 35°29' E 139°49'0 0.0
2014-Aug-30 18:33N 35°29' E 139°49'0 0.0
2014-Aug-30 17:33N 35°29' E 139°49'0 0.0
2014-Aug-30 16:33N 35°29' E 139°49'5 5.5
2014-Aug-30 15:33N 35°24' E 139°46'9 8.6
2014-Aug-30 14:33N 35°15' E 139°47'9 9.5
2014-Aug-30 13:34N 35°06' E 139°45'1110.9
2014-Aug-30 12:33N 34°59' E 139°35'231 8.2
2014-Aug-29 08:21N 34°06' E 135°03'1011.6
2014-Aug-29 07:32N 34°15' E 135°03'1111.5
2014-Aug-29 06:33N 34°25' E 135°10'1110.9
2014-Aug-29 05:33N 34°32' E 135°20'5 5.3
2014-Aug-29 04:33N 34°33' E 135°26'0 0.0
2014-Aug-29 03:33N 34°33' E 135°26'0 0.0
2014-Aug-29 02:32N 34°33' E 135°26'0 0.0
2014-Aug-29 01:33N 34°33' E 135°26'0 0.0
2014-Aug-29 00:33N 34°33' E 135°26'4 3.2
2014-Aug-28 23:20N 34°33' E 135°22'3 3.2
2014-Aug-28 22:23N 34°32' E 135°18'0 0.0
2014-Aug-28 21:29N 34°32' E 135°18'0 0.0
2014-Aug-28 20:29N 34°32' E 135°18'0 0.0
2014-Aug-28 19:29N 34°32' E 135°18'0 0.0
2014-Aug-28 18:29N 34°32' E 135°18'0 0.0
2014-Aug-28 17:23N 34°32' E 135°18'0 0.1
2014-Aug-28 16:29N 34°32' E 135°18'0 0.0
2014-Aug-28 15:29N 34°32' E 135°18'0 0.0
2014-Aug-28 14:23N 34°32' E 135°18'0 0.0
2014-Aug-28 13:29N 34°32' E 135°18'0 0.0
2014-Aug-28 12:29N 34°32' E 135°18'0 0.0
2014-Aug-28 11:32N 34°32' E 135°18'0 0.0
2014-Aug-28 10:32N 34°32' E 135°18'0 0.0
2014-Aug-28 09:26N 34°32' E 135°18'0 0.0
2014-Aug-28 08:14N 34°32' E 135°18'0 0.0
2014-Aug-28 07:32N 34°32' E 135°18'0 0.0
2014-Aug-28 06:32N 34°32' E 135°18'0 0.0
2014-Aug-28 05:25N 34°32' E 135°18'0 0.0
2014-Aug-28 04:31N 34°32' E 135°18'0 0.0
2014-Aug-28 03:19N 34°32' E 135°18'0 0.0
2014-Aug-28 02:28N 34°32' E 135°18'0 0.0
2014-Aug-27 12:25N 34°32' E 135°18'8 9.0
2014-Aug-27 11:33N 34°34' E 135°09'9 8.8
2014-Aug-27 10:33N 34°37' E 134°59'137 4.7
2014-Aug-26 05:27N 34°11' E 132°16'3 1.7
2014-Aug-26 03:32N 34°14' E 132°19'1110.9
2014-Aug-26 02:33N 34°20' E 132°29'3 2.6
2014-Aug-26 01:33N 34°22' E 132°31'1 1.4
2014-Aug-26 00:33N 34°21' E 132°30'2 2.4
2014-Aug-25 23:32N 34°19' E 132°29'0 0.0
2014-Aug-25 22:32N 34°19' E 132°29'0 0.0
2014-Aug-25 21:32N 34°19' E 132°29'0 0.0
2014-Aug-25 20:32N 34°19' E 132°29'0 0.0
2014-Aug-25 19:32N 34°19' E 132°29'0 0.0
2014-Aug-25 18:32N 34°19' E 132°29'0 0.0
2014-Aug-25 17:29N 34°19' E 132°29'0 0.0
2014-Aug-25 16:32N 34°19' E 132°29'0 0.0
2014-Aug-25 15:29N 34°19' E 132°29'0 0.0
2014-Aug-25 14:32N 34°19' E 132°29'0 0.0
2014-Aug-25 13:29N 34°19' E 132°29'0 0.0
2014-Aug-25 12:32N 34°19' E 132°29'1 1.1
2014-Aug-25 11:33N 34°18' E 132°28'1311.0
2014-Aug-25 10:24N 34°12' E 132°15'0 0.1
2014-Aug-25 09:32N 34°12' E 132°15'0 0.0
2014-Aug-25 08:33N 34°12' E 132°15'0 0.0
2014-Aug-25 07:33N 34°12' E 132°15'0 0.0
2014-Aug-25 06:33N 34°12' E 132°15'2 1.9
2014-Aug-25 05:16N 34°11' E 132°17'4 6.1
2014-Aug-25 04:33N 34°15' E 132°20'9 9.0
2014-Aug-25 03:33N 34°20' E 132°29'3 2.7
2014-Aug-25 02:33N 34°22' E 132°31'0 0.0
2014-Aug-25 01:33N 34°22' E 132°31'0 0.0
2014-Aug-25 00:33N 34°22' E 132°31'0 0.0
2014-Aug-24 23:33N 34°22' E 132°31'3 3.4
2014-Aug-24 22:33N 34°19' E 132°30'0 0.0
2014-Aug-24 21:33N 34°19' E 132°30'0 0.0
2014-Aug-24 20:33N 34°19' E 132°30'0 0.1
2014-Aug-24 19:33N 34°19' E 132°29'0 0.0
2014-Aug-24 18:33N 34°19' E 132°29'0 0.0
2014-Aug-24 17:33N 34°19' E 132°29'0 0.0
2014-Aug-24 16:33N 34°19' E 132°29'0 0.0
2014-Aug-24 15:33N 34°19' E 132°29'0 0.0
2014-Aug-24 14:33N 34°19' E 132°29'0 0.0
2014-Aug-24 13:33N 34°19' E 132°29'0 0.0
2014-Aug-24 12:33N 34°19' E 132°30'0 0.0
2014-Aug-24 11:33N 34°19' E 132°30'0 0.0
2014-Aug-24 10:33N 34°19' E 132°30'0 0.0
2014-Aug-24 09:33N 34°19' E 132°30'0 0.0
2014-Aug-24 08:33N 34°19' E 132°30'0 0.0
2014-Aug-24 07:33N 34°19' E 132°30'0 0.0
2014-Aug-24 06:33N 34°19' E 132°30'0 0.0
2014-Aug-24 05:33N 34°19' E 132°29'0 0.0
2014-Aug-24 04:33N 34°19' E 132°29'0 0.0
2014-Aug-24 03:33N 34°19' E 132°29'0 0.0
2014-Aug-24 02:33N 34°19' E 132°29'0 0.1
2014-Aug-24 01:33N 34°19' E 132°30'0 0.0
2014-Aug-24 00:33N 34°19' E 132°30'0 0.0
2014-Aug-23 23:30N 34°19' E 132°30'0 0.0
2014-Aug-23 22:33N 34°19' E 132°30'0 0.0
2014-Aug-23 21:33N 34°19' E 132°30'0 0.0
2014-Aug-23 20:33N 34°19' E 132°30'0 0.0
2014-Aug-23 19:33N 34°19' E 132°30'24 1.0
2014-Aug-22 18:21N 33°56' E 132°39'  

Dump ship's entire track history